Time,TemperatureF,DewpointF,PressureIn,WindDirection,WindDirectionDegrees,WindSpeedMPH,WindSpeedGustMPH,Humidity,HourlyPrecipIn,Conditions,Clouds,dailyrainin,SoftwareType,DateUTC
2013-11-22 00:00:00,33.5,28.5,23.97,North,0,0.0,-999.0,82,0.00,,,1.49,,2013-11-22 08:00:00,
2013-11-22 01:00:00,33.3,28.1,23.97,North,0,0.0,-999.0,81,0.00,,,1.49,,2013-11-22 09:00:00,
2013-11-22 02:00:00,32.9,27.7,23.97,North,0,0.0,-999.0,81,0.00,,,1.49,,2013-11-22 10:00:00,
2013-11-22 03:00:00,32.4,27.0,23.97,North,0,0.0,-999.0,80,0.02,,,1.51,,2013-11-22 11:00:00,
2013-11-22 04:00:00,32.4,26.6,23.97,North,0,0.0,-999.0,79,0.00,,,1.47,,2013-11-22 12:00:00,
2013-11-22 05:00:00,32.0,26.0,23.96,North,0,0.0,-999.0,78,0.00,,,1.19,,2013-11-22 13:00:00,
2013-11-22 06:00:00,31.7,25.0,23.98,North,0,0.0,-999.0,76,0.00,,,0.90,,2013-11-22 14:00:00,
2013-11-22 07:05:00,31.9,24.8,24.01,North,0,0.0,-999.0,75,0.00,,,0.82,,2013-11-22 15:05:00,
2013-11-22 08:05:00,31.5,24.1,0.00,North,0,0.0,-999.0,74,0.00,,,0.71,,2013-11-22 16:05:00,
2013-11-22 09:05:00,32.0,24.0,0.00,North,0,0.0,-999.0,72,0.00,,,0.67,,2013-11-22 17:05:00,
2013-11-22 10:05:00,32.9,24.2,0.00,North,0,0.0,-999.0,70,0.02,,,0.69,,2013-11-22 18:05:00,
2013-11-22 11:05:00,32.9,23.9,0.00,North,0,0.0,-999.0,69,0.02,,,0.71,,2013-11-22 19:05:00,
2013-11-22 12:05:00,32.8,23.0,0.00,North,0,0.0,-999.0,67,0.02,,,0.73,,2013-11-22 20:05:00,
2013-11-22 13:05:00,33.8,22.9,0.00,North,0,0.0,-999.0,64,0.02,,,0.75,,2013-11-22 21:05:00,
2013-11-22 14:05:00,34.2,22.1,0.00,North,0,0.0,-999.0,61,0.02,,,0.77,,2013-11-22 22:05:00,
2013-11-22 15:05:00,34.2,20.5,0.00,North,0,0.0,-999.0,57,0.00,,,0.77,,2013-11-22 23:05:00,
2013-11-22 16:05:00,33.7,19.1,0.00,North,0,0.0,-999.0,55,0.00,,,0.75,,2013-11-23 00:05:00,
2013-11-22 17:05:00,33.1,16.9,0.00,North,0,0.0,-999.0,51,0.00,,,0.69,,2013-11-23 01:05:00,
2013-11-22 18:00:00,32.4,14.8,23.99,North,0,0.0,-999.0,48,0.00,,,0.47,,2013-11-23 02:00:00,
2013-11-22 19:00:00,32.4,12.8,24.00,North,0,0.0,-999.0,44,0.00,,,0.25,,2013-11-23 03:00:00,
2013-11-22 20:00:00,32.4,11.8,24.01,North,0,0.0,-999.0,42,0.00,,,0.15,,2013-11-23 04:00:00,
2013-11-22 21:00:00,32.0,9.2,24.01,North,0,0.0,-999.0,38,0.00,,,0.12,,2013-11-23 05:00:00,
2013-11-22 22:00:00,31.1,7.1,24.02,North,0,0.0,-999.0,36,0.00,,,0.12,,2013-11-23 06:00:00,
2013-11-22 23:00:00,30.6,4.2,24.02,North,0,0.0,-999.0,32,0.00,,,0.12,,2013-11-23 07:00:00,